sensor_id;sensor_type;location;lat;lon;timestamp;pressure;altitude;pressure_sealevel;temperature;humidity
41312;BME280;27061;41.648;24.568;2024-02-14T00:01:32;85222.22;;;2.94;81.47
41312;BME280;27061;41.648;24.568;2024-02-14T00:04:00;85100.38;;;2.20;80.87
41312;BME280;27061;41.648;24.568;2024-02-14T00:06:28;85257.91;;;3.49;81.11
41312;BME280;27061;41.648;24.568;2024-02-14T00:08:55;85108.63;;;2.39;80.07
41312;BME280;27061;41.648;24.568;2024-02-14T00:11:23;85153.09;;;2.68;78.74
41312;BME280;27061;41.648;24.568;2024-02-14T00:13:50;85231.88;;;3.26;79.71
41312;BME280;27061;41.648;24.568;2024-02-14T00:16:18;85143.56;;;2.77;79.02
41312;BME280;27061;41.648;24.568;2024-02-14T00:18:45;85090.16;;;2.29;79.49
41312;BME280;27061;41.648;24.568;2024-02-14T00:21:13;85108.66;;;2.49;79.81
41312;BME280;27061;41.648;24.568;2024-02-14T00:23:41;85119.63;;;2.61;78.45
41312;BME280;27061;41.648;24.568;2024-02-14T00:26:08;85272.94;;;3.52;79.08
41312;BME280;27061;41.648;24.568;2024-02-14T00:28:36;85209.28;;;3.21;79.50
41312;BME280;27061;41.648;24.568;2024-02-14T00:31:05;85276.38;;;3.71;78.41
41312;BME280;27061;41.648;24.568;2024-02-14T00:33:33;85204.47;;;3.12;78.83
41312;BME280;27061;41.648;24.568;2024-02-14T00:36:01;85064.84;;;2.14;77.98
41312;BME280;27061;41.648;24.568;2024-02-14T00:38:28;85216.69;;;2.80;79.77
41312;BME280;27061;41.648;24.568;2024-02-14T00:40:56;85101.75;;;2.28;78.00
41312;BME280;27061;41.648;24.568;2024-02-14T00:43:24;85084.56;;;1.89;78.26
41312;BME280;27061;41.648;24.568;2024-02-14T00:45:51;85140.00;;;2.34;78.86
41312;BME280;27061;41.648;24.568;2024-02-14T00:48:19;85202.38;;;2.86;79.43
41312;BME280;27061;41.648;24.568;2024-02-14T00:50:47;85264.69;;;3.24;79.64
41312;BME280;27061;41.648;24.568;2024-02-14T00:53:14;85096.22;;;1.99;79.28
41312;BME280;27061;41.648;24.568;2024-02-14T00:55:42;85200.25;;;2.70;79.31
41312;BME280;27061;41.648;24.568;2024-02-14T00:58:09;85061.28;;;1.73;79.67
41312;BME280;27061;41.648;24.568;2024-02-14T01:00:37;85239.94;;;2.83;79.42
41312;BME280;27061;41.648;24.568;2024-02-14T01:03:06;85186.56;;;2.60;79.33
41312;BME280;27061;41.648;24.568;2024-02-14T01:05:35;85139.31;;;2.21;79.64
41312;BME280;27061;41.648;24.568;2024-02-14T01:08:03;85016.06;;;1.26;79.74
41312;BME280;27061;41.648;24.568;2024-02-14T01:10:31;85160.47;;;2.25;80.67
41312;BME280;27061;41.648;24.568;2024-02-14T01:12:58;85237.22;;;2.81;80.69
41312;BME280;27061;41.648;24.568;2024-02-14T01:15:26;84983.03;;;0.69;81.70
41312;BME280;27061;41.648;24.568;2024-02-14T01:17:54;84981.09;;;0.84;81.42
41312;BME280;27061;41.648;24.568;2024-02-14T01:20:23;84914.53;;;0.12;83.67
41312;BME280;27061;41.648;24.568;2024-02-14T01:22:50;85143.25;;;1.90;80.92
41312;BME280;27061;41.648;24.568;2024-02-14T01:25:18;85007.06;;;1.01;81.12
41312;BME280;27061;41.648;24.568;2024-02-14T01:27:45;85196.06;;;2.47;81.15
41312;BME280;27061;41.648;24.568;2024-02-14T01:30:14;85036.47;;;1.19;80.28
41312;BME280;27061;41.648;24.568;2024-02-14T01:32:42;85074.06;;;1.36;80.11
41312;BME280;27061;41.648;24.568;2024-02-14T01:35:10;84965.13;;;0.42;79.76
41312;BME280;27061;41.648;24.568;2024-02-14T01:37:37;85027.47;;;0.98;80.37
41312;BME280;27061;41.648;24.568;2024-02-14T01:40:31;85285.13;;;3.09;80.45
41312;BME280;27061;41.648;24.568;2024-02-14T01:42:59;84997.31;;;0.69;80.67
41312;BME280;27061;41.648;24.568;2024-02-14T01:45:28;85022.09;;;1.10;80.35
41312;BME280;27061;41.648;24.568;2024-02-14T01:47:56;85050.75;;;1.17;81.13
41312;BME280;27061;41.648;24.568;2024-02-14T01:50:25;85038.47;;;1.10;80.85
41312;BME280;27061;41.648;24.568;2024-02-14T01:53:00;85158.38;;;2.11;80.57
41312;BME280;27061;41.648;24.568;2024-02-14T01:55:29;85264.41;;;2.53;80.31
41312;BME280;27061;41.648;24.568;2024-02-14T01:57:58;85152.84;;;1.99;80.79
41312;BME280;27061;41.648;24.568;2024-02-14T02:00:34;84913.94;;;0.24;80.79
41312;BME280;27061;41.648;24.568;2024-02-14T02:03:18;85248.06;;;2.61;81.58
41312;BME280;27061;41.648;24.568;2024-02-14T02:05:47;85078.94;;;1.54;81.27
41312;BME280;27061;41.648;24.568;2024-02-14T02:08:17;85299.53;;;3.13;81.21
41312;BME280;27061;41.648;24.568;2024-02-14T02:10:45;85057.78;;;1.51;80.80
41312;BME280;27061;41.648;24.568;2024-02-14T02:13:13;85307.09;;;3.31;79.83
41312;BME280;27061;41.648;24.568;2024-02-14T02:15:43;85239.97;;;2.89;79.46
41312;BME280;27061;41.648;24.568;2024-02-14T02:18:12;85114.56;;;1.87;79.67
41312;BME280;27061;41.648;24.568;2024-02-14T02:20:40;84955.63;;;0.47;79.67
41312;BME280;27061;41.648;24.568;2024-02-14T02:23:11;85287.91;;;3.15;79.82
41312;BME280;27061;41.648;24.568;2024-02-14T02:25:42;85242.72;;;2.98;80.24
41312;BME280;27061;41.648;24.568;2024-02-14T02:28:10;85059.16;;;1.54;79.91
41312;BME280;27061;41.648;24.568;2024-02-14T02:30:38;85165.97;;;2.37;79.33
41312;BME280;27061;41.648;24.568;2024-02-14T02:33:06;84938.78;;;0.70;79.78
41312;BME280;27061;41.648;24.568;2024-02-14T02:35:34;85295.38;;;3.08;79.58
41312;BME280;27061;41.648;24.568;2024-02-14T02:38:03;85125.56;;;2.05;79.94
41312;BME280;27061;41.648;24.568;2024-02-14T02:40:31;84970.13;;;0.76;81.10
41312;BME280;27061;41.648;24.568;2024-02-14T02:42:58;85013.91;;;1.04;80.56
41312;BME280;27061;41.648;24.568;2024-02-14T02:45:27;84963.72;;;0.34;81.37
41312;BME280;27061;41.648;24.568;2024-02-14T02:47:57;85080.19;;;1.33;81.93
41312;BME280;27061;41.648;24.568;2024-02-14T02:50:24;85268.03;;;2.96;81.12
41312;BME280;27061;41.648;24.568;2024-02-14T02:52:53;84948.16;;;0.49;80.36
41312;BME280;27061;41.648;24.568;2024-02-14T02:55:22;85139.84;;;1.95;80.96
41312;BME280;27061;41.648;24.568;2024-02-14T02:57:49;85214.50;;;2.44;80.66
41312;BME280;27061;41.648;24.568;2024-02-14T03:00:17;84948.75;;;0.35;80.79
41312;BME280;27061;41.648;24.568;2024-02-14T03:02:48;85166.44;;;1.87;81.38
41312;BME280;27061;41.648;24.568;2024-02-14T03:05:16;85271.25;;;2.58;81.77
41312;BME280;27061;41.648;24.568;2024-02-14T03:07:47;85269.88;;;2.53;82.12
41312;BME280;27061;41.648;24.568;2024-02-14T03:10:19;85094.38;;;1.15;82.23
41312;BME280;27061;41.648;24.568;2024-02-14T03:12:48;85156.03;;;1.61;82.53
41312;BME280;27061;41.648;24.568;2024-02-14T03:15:17;85308.94;;;2.74;82.34
41312;BME280;27061;41.648;24.568;2024-02-14T03:17:46;85240.25;;;2.07;82.43
41312;BME280;27061;41.648;24.568;2024-02-14T03:20:13;85325.31;;;2.76;82.45
41312;BME280;27061;41.648;24.568;2024-02-14T03:22:44;84999.69;;;0.23;82.60
41312;BME280;27061;41.648;24.568;2024-02-14T03:25:16;85070.28;;;0.79;82.28
41312;BME280;27061;41.648;24.568;2024-02-14T03:27:45;85010.63;;;0.29;83.54
41312;BME280;27061;41.648;24.568;2024-02-14T03:30:15;85299.94;;;2.57;82.36
41312;BME280;27061;41.648;24.568;2024-02-14T03:32:44;85030.53;;;0.48;82.01
41312;BME280;27061;41.648;24.568;2024-02-14T03:35:13;85064.63;;;0.57;82.72
41312;BME280;27061;41.648;24.568;2024-02-14T03:37:45;85083.91;;;0.79;83.44
41312;BME280;27061;41.648;24.568;2024-02-14T03:40:16;85032.41;;;0.29;83.56
41312;BME280;27061;41.648;24.568;2024-02-14T03:42:43;85205.66;;;1.35;83.93
41312;BME280;27061;41.648;24.568;2024-02-14T03:45:11;84983.84;;;0.01;83.10
41312;BME280;27061;41.648;24.568;2024-02-14T03:47:39;85025.66;;;0.36;82.56
41312;BME280;27061;41.648;24.568;2024-02-14T03:50:09;84985.91;;;0.03;83.23
41312;BME280;27061;41.648;24.568;2024-02-14T03:52:37;85338.88;;;2.51;83.61
41312;BME280;27061;41.648;24.568;2024-02-14T03:55:05;85341.72;;;2.74;83.77
41312;BME280;27061;41.648;24.568;2024-02-14T03:57:35;85190.81;;;1.60;83.21
41312;BME280;27061;41.648;24.568;2024-02-14T04:00:06;85288.84;;;2.27;83.01
41312;BME280;27061;41.648;24.568;2024-02-14T04:02:39;85126.38;;;1.10;82.29
41312;BME280;27061;41.648;24.568;2024-02-14T04:05:08;85290.25;;;2.30;82.71
41312;BME280;27061;41.648;24.568;2024-02-14T04:07:36;85229.31;;;2.01;81.27
41312;BME280;27061;41.648;24.568;2024-02-14T04:10:07;85138.00;;;1.15;82.03
41312;BME280;27061;41.648;24.568;2024-02-14T04:12:36;85349.31;;;2.83;82.09
41312;BME280;27061;41.648;24.568;2024-02-14T04:15:03;85227.19;;;1.93;81.55
41312;BME280;27061;41.648;24.568;2024-02-14T04:17:31;85129.72;;;1.01;81.15
41312;BME280;27061;41.648;24.568;2024-02-14T04:19:59;85275.16;;;2.25;81.67
41312;BME280;27061;41.648;24.568;2024-02-14T04:22:27;85111.13;;;0.79;82.51
41312;BME280;27061;41.648;24.568;2024-02-14T04:24:54;85139.88;;;0.96;83.30
41312;BME280;27061;41.648;24.568;2024-02-14T04:27:22;85302.31;;;2.02;83.16
41312;BME280;27061;41.648;24.568;2024-02-14T04:29:50;85356.66;;;2.58;82.43
41312;BME280;27061;41.648;24.568;2024-02-14T04:32:17;85344.94;;;2.44;82.81
41312;BME280;27061;41.648;24.568;2024-02-14T04:34:46;85286.72;;;2.15;83.19
41312;BME280;27061;41.648;24.568;2024-02-14T04:37:17;85019.28;;;0.07;82.17
41312;BME280;27061;41.648;24.568;2024-02-14T04:39:46;85114.47;;;0.69;82.11
41312;BME280;27061;41.648;24.568;2024-02-14T04:42:13;85301.66;;;2.04;82.57
41312;BME280;27061;41.648;24.568;2024-02-14T04:44:41;85207.75;;;1.44;82.44
41312;BME280;27061;41.648;24.568;2024-02-14T04:47:08;85168.59;;;1.05;82.02
41312;BME280;27061;41.648;24.568;2024-02-14T04:49:36;85329.19;;;2.36;82.37
41312;BME280;27061;41.648;24.568;2024-02-14T04:52:04;85194.06;;;1.36;81.50
41312;BME280;27061;41.648;24.568;2024-02-14T04:54:32;85311.97;;;2.11;82.20
41312;BME280;27061;41.648;24.568;2024-02-14T04:56:59;85388.78;;;2.60;82.82
41312;BME280;27061;41.648;24.568;2024-02-14T04:59:29;85169.94;;;1.06;82.12
41312;BME280;27061;41.648;24.568;2024-02-14T05:01:56;85327.72;;;2.23;82.24
41312;BME280;27061;41.648;24.568;2024-02-14T05:04:24;85357.28;;;2.49;81.94
41312;BME280;27061;41.648;24.568;2024-02-14T05:06:52;85219.88;;;1.25;82.86
41312;BME280;27061;41.648;24.568;2024-02-14T05:09:25;85373.72;;;2.57;81.78
41312;BME280;27061;41.648;24.568;2024-02-14T05:11:52;85174.75;;;1.10;82.02
41312;BME280;27061;41.648;24.568;2024-02-14T05:14:20;85222.69;;;1.35;81.33
41312;BME280;27061;41.648;24.568;2024-02-14T05:16:48;85333.16;;;2.15;82.37
41312;BME280;27061;41.648;24.568;2024-02-14T05:19:16;85359.91;;;2.31;81.38
41312;BME280;27061;41.648;24.568;2024-02-14T05:21:44;85405.13;;;2.52;81.48
41312;BME280;27061;41.648;24.568;2024-02-14T05:24:11;85296.00;;;1.77;81.60
41312;BME280;27061;41.648;24.568;2024-02-14T05:26:39;85332.41;;;2.06;82.37
41312;BME280;27061;41.648;24.568;2024-02-14T05:29:06;85245.97;;;1.46;82.09
41312;BME280;27061;41.648;24.568;2024-02-14T05:31:44;85427.06;;;2.62;81.57
41312;BME280;27061;41.648;24.568;2024-02-14T05:34:12;85414.78;;;2.67;81.62
41312;BME280;27061;41.648;24.568;2024-02-14T05:36:40;85377.69;;;2.36;81.24
41312;BME280;27061;41.648;24.568;2024-02-14T05:39:09;85380.47;;;2.46;80.58
41312;BME280;27061;41.648;24.568;2024-02-14T05:41:40;85391.53;;;2.62;80.29
41312;BME280;27061;41.648;24.568;2024-02-14T05:44:08;85384.56;;;2.41;80.79
41312;BME280;27061;41.648;24.568;2024-02-14T05:46:35;85335.09;;;2.04;80.58
41312;BME280;27061;41.648;24.568;2024-02-14T05:49:02;85374.91;;;2.30;80.82
41312;BME280;27061;41.648;24.568;2024-02-14T05:51:31;85411.97;;;2.53;80.18
41312;BME280;27061;41.648;24.568;2024-02-14T05:53:58;85449.00;;;2.72;80.68
41312;BME280;27061;41.648;24.568;2024-02-14T05:56:27;85422.22;;;2.54;81.06
41312;BME280;27061;41.648;24.568;2024-02-14T05:58:55;85279.97;;;1.39;81.10
41312;BME280;27061;41.648;24.568;2024-02-14T06:01:23;85333.56;;;1.83;81.17
41312;BME280;27061;41.648;24.568;2024-02-14T06:03:50;85296.56;;;1.64;80.61
41312;BME280;27061;41.648;24.568;2024-02-14T06:06:18;85314.38;;;1.73;80.22
41312;BME280;27061;41.648;24.568;2024-02-14T06:08:46;85392.09;;;2.46;79.65
41312;BME280;27061;41.648;24.568;2024-02-14T06:11:13;85395.44;;;2.37;79.96
41312;BME280;27061;41.648;24.568;2024-02-14T06:13:41;85399.50;;;2.34;80.39
41312;BME280;27061;41.648;24.568;2024-02-14T06:16:11;85450.47;;;2.89;79.59
41312;BME280;27061;41.648;24.568;2024-02-14T06:18:39;85319.25;;;1.84;79.74
41312;BME280;27061;41.648;24.568;2024-02-14T06:21:12;85433.88;;;2.61;80.28
41312;BME280;27061;41.648;24.568;2024-02-14T06:23:40;85421.69;;;2.74;79.88
41312;BME280;27061;41.648;24.568;2024-02-14T06:26:07;85403.81;;;2.59;79.14
41312;BME280;27061;41.648;24.568;2024-02-14T06:28:37;85416.06;;;2.56;79.04
41312;BME280;27061;41.648;24.568;2024-02-14T06:31:05;85425.66;;;2.59;79.76
41312;BME280;27061;41.648;24.568;2024-02-14T06:33:32;85445.63;;;2.78;79.19
41312;BME280;27061;41.648;24.568;2024-02-14T06:36:00;85410.50;;;2.44;79.70
41312;BME280;27061;41.648;24.568;2024-02-14T06:38:28;85483.38;;;3.02;80.15
41312;BME280;27061;41.648;24.568;2024-02-14T06:40:55;85467.63;;;2.94;80.05
41312;BME280;27061;41.648;24.568;2024-02-14T06:43:23;85453.72;;;2.64;79.79
41312;BME280;27061;41.648;24.568;2024-02-14T06:45:51;85432.50;;;2.58;79.87
41312;BME280;27061;41.648;24.568;2024-02-14T06:48:18;85414.59;;;2.39;79.58
41312;BME280;27061;41.648;24.568;2024-02-14T06:50:52;85328.00;;;1.69;79.77
41312;BME280;27061;41.648;24.568;2024-02-14T06:53:20;85434.47;;;2.49;79.89
41312;BME280;27061;41.648;24.568;2024-02-14T06:55:47;85492.94;;;2.97;80.02
41312;BME280;27061;41.648;24.568;2024-02-14T06:58:15;85384.38;;;2.16;79.62
41312;BME280;27061;41.648;24.568;2024-02-14T07:00:42;85473.69;;;2.84;80.29
41312;BME280;27061;41.648;24.568;2024-02-14T07:03:11;85499.84;;;3.12;80.58
41312;BME280;27061;41.648;24.568;2024-02-14T07:05:39;85343.28;;;2.02;79.54
41312;BME280;27061;41.648;24.568;2024-02-14T07:08:07;85333.56;;;1.83;79.35
41312;BME280;27061;41.648;24.568;2024-02-14T07:10:35;85362.94;;;1.84;79.64
41312;BME280;27061;41.648;24.568;2024-02-14T07:13:03;85395.38;;;2.27;79.17
41312;BME280;27061;41.648;24.568;2024-02-14T07:15:30;85258.16;;;1.37;77.64
41312;BME280;27061;41.648;24.568;2024-02-14T07:17:58;85389.28;;;2.32;78.61
41312;BME280;27061;41.648;24.568;2024-02-14T07:20:26;85464.03;;;2.71;79.00
41312;BME280;27061;41.648;24.568;2024-02-14T07:22:54;85207.25;;;0.86;78.81
41312;BME280;27061;41.648;24.568;2024-02-14T07:25:24;85449.03;;;2.78;78.87
41312;BME280;27061;41.648;24.568;2024-02-14T07:27:51;85511.59;;;3.30;78.96
41312;BME280;27061;41.648;24.568;2024-02-14T07:30:19;85465.50;;;2.88;79.43
41312;BME280;27061;41.648;24.568;2024-02-14T07:32:46;85301.22;;;1.51;79.23
41312;BME280;27061;41.648;24.568;2024-02-14T07:35:14;85289.00;;;1.54;79.77
41312;BME280;27061;41.648;24.568;2024-02-14T07:37:41;85492.94;;;2.97;79.03
41312;BME280;27061;41.648;24.568;2024-02-14T07:43:18;85518.25;;;3.01;80.21
41312;BME280;27061;41.648;24.568;2024-02-14T07:45:45;85344.44;;;1.75;79.79
41312;BME280;27061;41.648;24.568;2024-02-14T07:48:12;85449.44;;;2.44;79.77
41312;BME280;27061;41.648;24.568;2024-02-14T07:50:40;85329.28;;;1.62;80.16
41312;BME280;27061;41.648;24.568;2024-02-14T07:53:07;85280.50;;;1.22;79.18
41312;BME280;27061;41.648;24.568;2024-02-14T07:55:35;85273.06;;;1.28;79.46
41312;BME280;27061;41.648;24.568;2024-02-14T07:58:05;85541.69;;;3.30;79.32
41312;BME280;27061;41.648;24.568;2024-02-14T08:00:32;85524.34;;;2.93;79.62
41312;BME280;27061;41.648;24.568;2024-02-14T08:03:00;85191.91;;;0.50;79.38
41312;BME280;27061;41.648;24.568;2024-02-14T08:05:31;85526.34;;;2.89;80.72
41312;BME280;27061;41.648;24.568;2024-02-14T08:07:58;85504.94;;;2.61;80.40
41312;BME280;27061;41.648;24.568;2024-02-14T08:10:25;85297.50;;;1.16;80.56
41312;BME280;27061;41.648;24.568;2024-02-14T08:12:55;85357.84;;;1.53;80.50
41312;BME280;27061;41.648;24.568;2024-02-14T08:15:22;85495.31;;;2.52;80.22
41312;BME280;27061;41.648;24.568;2024-02-14T08:17:50;85473.31;;;2.38;80.28
41312;BME280;27061;41.648;24.568;2024-02-14T08:20:18;85498.06;;;2.56;79.74
41312;BME280;27061;41.648;24.568;2024-02-14T08:22:49;85237.03;;;0.67;79.60
41312;BME280;27061;41.648;24.568;2024-02-14T08:25:18;85370.97;;;1.70;80.17
41312;BME280;27061;41.648;24.568;2024-02-14T08:27:46;85394.88;;;1.72;79.51
41312;BME280;27061;41.648;24.568;2024-02-14T08:30:15;85411.38;;;1.84;80.34
41312;BME280;27061;41.648;24.568;2024-02-14T08:32:42;85381.31;;;1.78;80.34
41312;BME280;27061;41.648;24.568;2024-02-14T08:35:10;85536.53;;;2.80;80.17
41312;BME280;27061;41.648;24.568;2024-02-14T08:37:38;85458.81;;;2.19;80.45
41312;BME280;27061;41.648;24.568;2024-02-14T08:40:07;85454.00;;;2.15;79.73
41312;BME280;27061;41.648;24.568;2024-02-14T08:42:35;85528.34;;;2.80;79.79
41312;BME280;27061;41.648;24.568;2024-02-14T08:45:03;85506.97;;;2.58;79.77
41312;BME280;27061;41.648;24.568;2024-02-14T08:47:30;85414.25;;;1.98;79.77
41312;BME280;27061;41.648;24.568;2024-02-14T08:49:58;85565.41;;;3.02;80.14
41312;BME280;27061;41.648;24.568;2024-02-14T08:52:26;85520.69;;;2.65;80.67
41312;BME280;27061;41.648;24.568;2024-02-14T08:54:55;85384.38;;;1.44;80.64
41312;BME280;27061;41.648;24.568;2024-02-14T08:57:23;85295.94;;;0.97;80.23
41312;BME280;27061;41.648;24.568;2024-02-14T08:59:51;85469.13;;;2.29;80.22
41312;BME280;27061;41.648;24.568;2024-02-14T09:02:18;85531.72;;;2.75;79.11
41312;BME280;27061;41.648;24.568;2024-02-14T09:04:46;85445.69;;;2.03;79.58
41312;BME280;27061;41.648;24.568;2024-02-14T09:07:14;85567.38;;;2.91;79.92
41312;BME280;27061;41.648;24.568;2024-02-14T09:09:41;85561.84;;;2.83;79.79
41312;BME280;27061;41.648;24.568;2024-02-14T09:12:09;85591.50;;;3.13;80.39
41312;BME280;27061;41.648;24.568;2024-02-14T09:14:37;85441.38;;;1.82;79.29
41312;BME280;27061;41.648;24.568;2024-02-14T09:17:04;85488.94;;;2.29;79.50
41312;BME280;27061;41.648;24.568;2024-02-14T09:19:32;85590.16;;;3.16;79.88
41312;BME280;27061;41.648;24.568;2024-02-14T09:22:00;85590.19;;;3.22;80.43
41312;BME280;27061;41.648;24.568;2024-02-14T09:24:28;85434.06;;;2.03;80.68
41312;BME280;27061;41.648;24.568;2024-02-14T09:26:56;85363.25;;;1.48;80.01
41312;BME280;27061;41.648;24.568;2024-02-14T09:29:28;85478.03;;;2.29;79.68
41312;BME280;27061;41.648;24.568;2024-02-14T09:31:56;85463.72;;;2.35;80.22
41312;BME280;27061;41.648;24.568;2024-02-14T09:34:24;85574.44;;;3.20;78.70
41312;BME280;27061;41.648;24.568;2024-02-14T09:36:53;85450.00;;;2.29;78.75
41312;BME280;27061;41.648;24.568;2024-02-14T09:39:20;85401.22;;;1.91;78.92
41312;BME280;27061;41.648;24.568;2024-02-14T09:41:52;85366.25;;;1.75;78.15
41312;BME280;27061;41.648;24.568;2024-02-14T09:44:21;85595.13;;;3.42;78.53
41312;BME280;27061;41.648;24.568;2024-02-14T09:46:49;85378.50;;;1.72;78.22
41312;BME280;27061;41.648;24.568;2024-02-14T09:49:17;85420.47;;;2.07;78.65
41312;BME280;27061;41.648;24.568;2024-02-14T09:51:49;85388.03;;;1.67;79.57
41312;BME280;27061;41.648;24.568;2024-02-14T09:54:17;85592.91;;;3.20;80.66
41312;BME280;27061;41.648;24.568;2024-02-14T09:56:49;85499.38;;;2.51;78.82
41312;BME280;27061;41.648;24.568;2024-02-14T09:59:23;85553.09;;;3.01;78.61
41312;BME280;27061;41.648;24.568;2024-02-14T10:01:51;85553.03;;;2.90;78.92
41312;BME280;27061;41.648;24.568;2024-02-14T10:04:19;85551.78;;;3.06;79.37
41312;BME280;27061;41.648;24.568;2024-02-14T10:06:51;85594.34;;;3.25;78.35
41312;BME280;27061;41.648;24.568;2024-02-14T10:09:22;85590.25;;;3.28;78.53
41312;BME280;27061;41.648;24.568;2024-02-14T10:11:51;85425.31;;;2.14;79.69
41312;BME280;27061;41.648;24.568;2024-02-14T10:14:18;85579.31;;;3.28;79.09
41312;BME280;27061;41.648;24.568;2024-02-14T10:16:46;85597.22;;;3.45;78.98
41312;BME280;27061;41.648;24.568;2024-02-14T10:19:20;85488.47;;;2.53;79.20
41312;BME280;27061;41.648;24.568;2024-02-14T10:21:58;85422.53;;;2.08;80.49
41312;BME280;27061;41.648;24.568;2024-02-14T10:24:28;85412.94;;;2.05;80.44
41312;BME280;27061;41.648;24.568;2024-02-14T10:26:55;85588.28;;;3.41;80.28
41312;BME280;27061;41.648;24.568;2024-02-14T10:29:25;85462.44;;;2.46;80.08
41312;BME280;27061;41.648;24.568;2024-02-14T10:31:53;85373.13;;;1.82;79.06
41312;BME280;27061;41.648;24.568;2024-02-14T10:34:24;85584.16;;;3.40;79.92
41312;BME280;27061;41.648;24.568;2024-02-14T10:36:57;85454.91;;;2.42;79.08
41312;BME280;27061;41.648;24.568;2024-02-14T10:39:29;85456.81;;;2.26;80.04
41312;BME280;27061;41.648;24.568;2024-02-14T10:41:58;85333.97;;;1.51;78.60
41312;BME280;27061;41.648;24.568;2024-02-14T10:44:27;85602.59;;;3.31;79.68
41312;BME280;27061;41.648;24.568;2024-02-14T10:46:55;85529.84;;;3.00;79.64
41312;BME280;27061;41.648;24.568;2024-02-14T10:49:27;85481.06;;;2.64;79.27
41312;BME280;27061;41.648;24.568;2024-02-14T10:51:58;85426.69;;;2.15;79.03
41312;BME280;27061;41.648;24.568;2024-02-14T10:54:35;85582.81;;;3.41;78.50
41312;BME280;27061;41.648;24.568;2024-02-14T10:57:06;85520.09;;;2.78;78.53
41312;BME280;27061;41.648;24.568;2024-02-14T10:59:44;85595.13;;;3.40;78.64
41312;BME280;27061;41.648;24.568;2024-02-14T11:02:13;85358.72;;;1.69;78.44
41312;BME280;27061;41.648;24.568;2024-02-14T11:04:42;85595.84;;;3.44;78.51
41312;BME280;27061;41.648;24.568;2024-02-14T11:07:10;85428.75;;;2.19;77.82
41312;BME280;27061;41.648;24.568;2024-02-14T11:09:37;85598.56;;;3.42;77.28
41312;BME280;27061;41.648;24.568;2024-02-14T11:12:12;85536.59;;;2.88;78.29
41312;BME280;27061;41.648;24.568;2024-02-14T11:14:42;85602.53;;;3.23;77.37
41312;BME280;27061;41.648;24.568;2024-02-14T11:17:13;85572.22;;;2.99;78.06
41312;BME280;27061;41.648;24.568;2024-02-14T11:19:41;85559.88;;;2.91;77.84
41312;BME280;27061;41.648;24.568;2024-02-14T11:22:13;85554.16;;;2.65;78.26
41312;BME280;27061;41.648;24.568;2024-02-14T11:24:48;85570.63;;;2.71;78.72
41312;BME280;27061;41.648;24.568;2024-02-14T11:27:17;85603.06;;;3.05;78.76
41312;BME280;27061;41.648;24.568;2024-02-14T11:30:00;85504.59;;;2.25;79.11
41312;BME280;27061;41.648;24.568;2024-02-14T11:32:28;85601.69;;;3.04;79.23
41312;BME280;27061;41.648;24.568;2024-02-14T11:34:56;85579.06;;;2.96;77.79
41312;BME280;27061;41.648;24.568;2024-02-14T11:37:30;85549.38;;;2.66;78.65
41312;BME280;27061;41.648;24.568;2024-02-14T11:40:01;85608.53;;;3.05;78.31
41312;BME280;27061;41.648;24.568;2024-02-14T11:42:29;85560.28;;;2.62;78.18
41312;BME280;27061;41.648;24.568;2024-02-14T11:44:58;85620.22;;;3.12;78.58
41312;BME280;27061;41.648;24.568;2024-02-14T11:47:25;85529.41;;;2.47;78.55
41312;BME280;27061;41.648;24.568;2024-02-14T11:49:53;85617.25;;;2.85;76.98
41312;BME280;27061;41.648;24.568;2024-02-14T11:52:20;85592.63;;;2.85;78.17
41312;BME280;27061;41.648;24.568;2024-02-14T11:54:48;85394.63;;;1.45;78.19
41312;BME280;27061;41.648;24.568;2024-02-14T11:57:19;85561.66;;;2.63;78.30
41312;BME280;27061;41.648;24.568;2024-02-14T11:59:49;85477.09;;;2.04;78.15
41312;BME280;27061;41.648;24.568;2024-02-14T12:02:20;85427.66;;;1.76;77.39
41312;BME280;27061;41.648;24.568;2024-02-14T12:04:48;85446.94;;;1.90;77.56
41312;BME280;27061;41.648;24.568;2024-02-14T12:07:18;85506.75;;;2.32;78.00
41312;BME280;27061;41.648;24.568;2024-02-14T12:09:45;85565.22;;;2.75;78.36
41312;BME280;27061;41.648;24.568;2024-02-14T12:12:14;85460.63;;;1.96;77.76
41312;BME280;27061;41.648;24.568;2024-02-14T12:14:43;85579.69;;;2.92;77.10
41312;BME280;27061;41.648;24.568;2024-02-14T12:17:12;85482.75;;;2.25;77.14
41312;BME280;27061;41.648;24.568;2024-02-14T12:19:39;85459.00;;;1.71;77.17
41312;BME280;27061;41.648;24.568;2024-02-14T12:22:10;85594.16;;;3.03;76.72
41312;BME280;27061;41.648;24.568;2024-02-14T12:24:46;85499.31;;;2.41;76.06
41312;BME280;27061;41.648;24.568;2024-02-14T12:27:17;85616.25;;;3.27;77.45
41312;BME280;27061;41.648;24.568;2024-02-14T12:29:46;85621.66;;;3.21;77.78
41312;BME280;27061;41.648;24.568;2024-02-14T12:32:16;85510.22;;;2.41;76.84
41312;BME280;27061;41.648;24.568;2024-02-14T12:34:44;85533.59;;;2.54;76.94
41312;BME280;27061;41.648;24.568;2024-02-14T12:37:12;85600.94;;;3.00;77.04
41312;BME280;27061;41.648;24.568;2024-02-14T12:39:40;85618.63;;;2.88;76.78
41312;BME280;27061;41.648;24.568;2024-02-14T12:42:08;85617.91;;;2.84;78.08
41312;BME280;27061;41.648;24.568;2024-02-14T12:44:38;85343.41;;;0.78;78.10
41312;BME280;27061;41.648;24.568;2024-02-14T12:47:06;85590.84;;;2.42;78.59
41312;BME280;27061;41.648;24.568;2024-02-14T12:49:34;85618.25;;;2.50;79.07
41312;BME280;27061;41.648;24.568;2024-02-14T12:52:02;85556.94;;;2.03;79.45
41312;BME280;27061;41.648;24.568;2024-02-14T12:54:31;85460.66;;;1.36;79.73
41312;BME280;27061;41.648;24.568;2024-02-14T12:57:00;85605.28;;;2.52;79.81
41312;BME280;27061;41.648;24.568;2024-02-14T12:59:28;85570.03;;;2.14;79.85
41312;BME280;27061;41.648;24.568;2024-02-14T13:01:56;85531.44;;;1.82;80.19
41312;BME280;27061;41.648;24.568;2024-02-14T13:04:23;85634.69;;;2.54;80.39
41312;BME280;27061;41.648;24.568;2024-02-14T13:06:51;85444.78;;;1.20;79.91
41312;BME280;27061;41.648;24.568;2024-02-14T13:09:19;85567.31;;;2.14;81.07
41312;BME280;27061;41.648;24.568;2024-02-14T13:11:46;85579.16;;;2.37;80.45